createdAt,value
2019-02-04T00:03:25.651Z,6.87
2019-02-04T00:05:54.061Z,6.80
2019-02-04T00:08:22.406Z,6.92
2019-02-04T00:10:50.745Z,7.27
2019-02-04T00:13:19.089Z,5.90
2019-02-04T00:15:47.498Z,6.85
2019-02-04T00:18:15.904Z,5.93
2019-02-04T00:20:44.309Z,6.83
2019-02-04T00:23:12.812Z,6.87
2019-02-04T00:25:41.682Z,6.22
2019-02-04T00:28:10.020Z,6.90
2019-02-04T00:30:38.401Z,5.90
2019-02-04T00:33:06.830Z,6.60
2019-02-04T00:35:35.200Z,5.87
2019-02-04T00:38:03.650Z,6.37
2019-02-04T00:40:32.340Z,6.40
2019-02-04T00:43:00.685Z,6.25
2019-02-04T00:45:29.020Z,6.07
2019-02-04T00:47:57.352Z,6.93
2019-02-04T00:50:25.779Z,6.62
2019-02-04T00:52:54.282Z,6.30
2019-02-04T00:55:23.091Z,6.13
2019-02-04T00:57:51.490Z,5.93
2019-02-04T01:00:23.087Z,5.58
2019-02-04T01:02:51.673Z,6.53
2019-02-04T01:05:20.403Z,6.80
2019-02-04T01:07:48.969Z,6.37
2019-02-04T01:10:21.377Z,6.33
2019-02-04T01:12:49.946Z,5.70
2019-02-04T01:15:18.380Z,5.60
2019-02-04T01:17:46.757Z,6.47
2019-02-04T01:20:18.246Z,5.67
2019-02-04T01:22:46.643Z,6.27
2019-02-04T01:25:15.429Z,6.37
2019-02-04T01:27:43.858Z,6.45
2019-02-04T01:30:15.217Z,5.77
2019-02-04T01:32:43.573Z,7.20
2019-02-04T01:35:14.228Z,5.78
2019-02-04T01:37:42.983Z,6.70
2019-02-04T01:40:14.597Z,6.77
2019-02-04T01:42:42.949Z,6.37
2019-02-04T01:45:12.836Z,6.30
2019-02-04T01:47:41.187Z,6.50
2019-02-04T01:50:13.767Z,6.73
2019-02-04T01:52:42.213Z,6.35
2019-02-04T01:55:13.517Z,6.33
2019-02-04T01:57:42.479Z,7.07
2019-02-04T02:00:16.034Z,6.23
2019-02-04T02:02:44.455Z,6.80
2019-02-04T02:05:13.721Z,6.65
2019-02-04T02:07:42.115Z,6.07
2019-02-04T02:10:12.416Z,6.67
2019-02-04T02:12:40.748Z,6.50
2019-02-04T02:15:09.511Z,6.90
2019-02-04T02:17:37.862Z,7.07
2019-02-04T02:20:12.050Z,7.07
2019-02-04T02:22:40.353Z,6.63
2019-02-04T02:25:08.992Z,8.40
2019-02-04T02:27:37.589Z,7.00
2019-02-04T02:30:10.908Z,6.75
2019-02-04T02:32:39.860Z,7.13
2019-02-04T02:35:08.590Z,6.25
2019-02-04T02:37:36.956Z,6.93
2019-02-04T02:40:11.235Z,7.50
2019-02-04T02:42:39.565Z,6.30
2019-02-04T02:45:08.662Z,6.87
2019-02-04T02:47:38.829Z,7.00
2019-02-04T02:50:11.424Z,7.63
2019-02-04T02:52:39.908Z,6.87
2019-02-04T02:55:11.153Z,7.03
2019-02-04T02:57:39.539Z,7.08
2019-02-04T03:00:13.483Z,6.83
2019-02-04T03:02:41.873Z,7.27
2019-02-04T03:05:13.726Z,7.03
2019-02-04T03:07:42.099Z,6.67
2019-02-04T03:10:15.839Z,6.75
2019-02-04T03:12:44.284Z,8.20
2019-02-04T03:15:13.530Z,6.80
2019-02-04T03:17:50.997Z,7.80
2019-02-04T03:20:13.378Z,6.78
2019-02-04T03:22:41.834Z,7.25
2019-02-04T03:25:13.752Z,7.10
2019-02-04T03:27:42.535Z,7.97
2019-02-04T03:30:14.195Z,7.27
2019-02-04T03:32:42.643Z,7.07
2019-02-04T03:35:11.661Z,7.60
2019-02-04T03:37:39.972Z,7.40
2019-02-04T03:40:14.112Z,7.10
2019-02-04T03:42:42.523Z,7.33
2019-02-04T03:45:12.604Z,6.90
2019-02-04T03:47:41.029Z,7.83
2019-02-04T03:50:12.027Z,7.40
2019-02-04T03:52:40.342Z,7.70
2019-02-04T03:55:12.853Z,7.12
2019-02-04T03:57:41.237Z,8.00
2019-02-04T04:00:15.027Z,7.40
2019-02-04T04:02:43.394Z,7.30
2019-02-04T04:05:13.211Z,7.13
2019-02-04T04:07:42.024Z,6.70
2019-02-04T04:10:11.154Z,7.13
2019-02-04T04:12:39.486Z,6.87
2019-02-04T04:15:10.293Z,7.10
2019-02-04T04:17:38.805Z,7.00
2019-02-04T04:20:10.545Z,6.97
2019-02-04T04:22:39.340Z,6.67
2019-02-04T04:25:09.648Z,8.27
2019-02-04T04:27:38.007Z,7.00
2019-02-04T04:33:17.832Z,7.10
2019-02-04T04:35:46.170Z,7.27
2019-02-04T04:38:14.531Z,7.00
2019-02-04T04:40:43.096Z,6.57
2019-02-04T04:43:11.906Z,6.70
2019-02-04T04:45:40.225Z,6.30
2019-02-04T04:48:08.715Z,7.37
2019-02-04T04:50:37.032Z,7.50
2019-02-04T04:53:05.518Z,6.47
2019-02-04T04:55:34.415Z,6.70
2019-02-04T04:58:02.848Z,6.90
2019-02-04T05:00:31.478Z,6.90
2019-02-04T05:02:59.943Z,7.43
2019-02-04T05:05:28.371Z,7.58
2019-02-04T05:07:56.712Z,6.73
2019-02-04T05:10:25.113Z,6.90
2019-02-04T05:12:53.577Z,8.00
2019-02-04T05:15:23.914Z,7.57
2019-02-04T05:17:52.787Z,10.37
2019-02-04T05:20:21.590Z,14.47
2019-02-04T05:22:50.000Z,9.33
2019-02-04T05:25:18.518Z,10.13
2019-02-04T05:27:46.946Z,9.57
2019-02-04T05:30:19.195Z,8.37
2019-02-04T05:32:47.576Z,8.33
2019-02-04T05:35:15.989Z,7.40
2019-02-04T05:37:44.428Z,8.48
2019-02-04T05:40:15.459Z,8.57
2019-02-04T05:42:44.272Z,8.90
2019-02-04T05:45:14.602Z,6.90
2019-02-04T05:47:43.141Z,9.60
2019-02-04T05:50:13.244Z,11.10
2019-02-04T05:52:41.711Z,10.73
2019-02-04T05:55:12.087Z,7.17
2019-02-04T05:57:41.046Z,8.63
2019-02-04T06:00:14.009Z,7.57
2019-02-04T06:02:42.448Z,7.77
2019-02-04T06:05:12.550Z,8.67
2019-02-04T06:07:40.894Z,8.27
2019-02-04T06:10:11.520Z,8.00
2019-02-04T06:12:39.927Z,8.20
2019-02-04T06:15:12.599Z,8.30
2019-02-04T06:17:41.097Z,9.30
2019-02-04T06:20:14.226Z,8.30
2019-02-04T06:22:42.659Z,9.18
2019-02-04T06:25:11.736Z,8.10
2019-02-04T06:27:40.265Z,8.83
2019-02-04T06:30:11.991Z,7.77
2019-02-04T06:32:41.081Z,8.45
2019-02-04T06:35:09.858Z,8.27
2019-02-04T06:37:38.303Z,7.97
2019-02-04T06:40:10.798Z,8.57
2019-02-04T06:42:39.226Z,9.87
2019-02-04T06:45:10.606Z,9.30
2019-02-04T06:47:39.139Z,8.18
2019-02-04T06:50:11.341Z,8.50
2019-02-04T06:52:40.150Z,7.30
2019-02-04T06:55:11.437Z,8.73
2019-02-04T06:57:39.780Z,9.50
2019-02-04T07:00:10.260Z,8.13
2019-02-04T07:02:38.667Z,8.10
2019-02-04T07:05:08.507Z,8.93
2019-02-04T07:07:37.162Z,8.65
2019-02-04T07:10:11.702Z,8.00
2019-02-04T07:12:40.062Z,8.90
2019-02-04T07:15:10.101Z,8.50
2019-02-04T07:17:38.461Z,8.17
2019-02-04T07:20:10.767Z,8.83
2019-02-04T07:22:39.137Z,8.30
2019-02-04T07:25:10.825Z,8.63
2019-02-04T07:27:39.166Z,7.23
2019-02-04T07:30:11.359Z,8.63
2019-02-04T07:32:39.751Z,8.90
2019-02-04T07:35:09.943Z,7.63
2019-02-04T07:37:38.333Z,7.60
2019-02-04T07:40:10.282Z,8.57
2019-02-04T07:42:38.602Z,7.53
2019-02-04T07:45:10.047Z,8.33
2019-02-04T07:47:38.433Z,8.33
2019-02-04T07:50:09.889Z,8.40
2019-02-04T07:52:38.353Z,8.37
2019-02-04T07:55:09.522Z,7.87
2019-02-04T07:57:37.838Z,8.10
2019-02-04T08:03:15.530Z,7.70
2019-02-04T08:05:43.920Z,7.90
2019-02-04T08:08:12.265Z,8.70
2019-02-04T08:10:40.644Z,8.00
2019-02-04T08:13:09.477Z,8.37
2019-02-04T08:15:38.258Z,9.00
2019-02-04T08:18:07.396Z,8.43
2019-02-04T08:20:35.969Z,8.33
2019-02-04T08:23:04.488Z,9.10
2019-02-04T08:25:32.821Z,8.30
2019-02-04T08:28:01.155Z,8.90
2019-02-04T08:30:33.176Z,8.58
2019-02-04T08:33:01.644Z,8.80
2019-02-04T08:35:30.831Z,8.50
2019-02-04T08:37:59.728Z,9.40
2019-02-04T08:40:28.723Z,9.00
2019-02-04T08:42:57.342Z,9.10
2019-02-04T08:45:26.493Z,9.18
2019-02-04T08:47:54.915Z,10.10
2019-02-04T08:50:24.971Z,9.10
2019-02-04T08:52:54.001Z,9.28
2019-02-04T08:55:23.492Z,9.00
2019-02-04T08:57:53.106Z,8.70
2019-02-04T09:00:22.888Z,8.87
2019-02-04T09:02:52.323Z,7.47
2019-02-04T09:05:21.997Z,8.43
2019-02-04T09:07:50.361Z,8.07
2019-02-04T09:10:23.653Z,8.20
2019-02-04T09:12:52.490Z,10.03
2019-02-04T09:15:21.097Z,9.70
2019-02-04T09:17:49.674Z,9.43
2019-02-04T09:20:18.658Z,7.90
2019-02-04T09:22:47.224Z,9.57
2019-02-04T09:25:16.687Z,8.70
2019-02-04T09:27:45.577Z,8.88
2019-02-04T09:30:16.666Z,9.40
2019-02-04T09:32:44.985Z,8.50
2019-02-04T09:35:16.659Z,8.40
2019-02-04T09:37:45.206Z,8.58
2019-02-04T09:40:17.889Z,8.80
2019-02-04T09:42:46.726Z,9.83
2019-02-04T09:45:16.705Z,8.78
2019-02-04T09:47:45.708Z,9.13
2019-02-04T09:50:21.773Z,10.00
2019-02-04T09:52:46.753Z,9.73
2019-02-04T09:55:17.850Z,9.48
2019-02-04T09:57:46.558Z,9.40
2019-02-04T10:00:19.166Z,8.27
2019-02-04T10:02:47.610Z,7.80
2019-02-04T10:05:17.466Z,8.47
2019-02-04T10:07:45.892Z,9.03
2019-02-04T10:10:17.577Z,9.90
2019-02-04T10:12:46.039Z,8.30
2019-02-04T10:15:17.619Z,10.00
2019-02-04T10:17:46.238Z,8.60
2019-02-04T10:20:16.461Z,9.03
2019-02-04T10:22:45.398Z,8.37
2019-02-04T10:25:16.767Z,9.70
2019-02-04T10:27:45.325Z,9.90
2019-02-04T10:30:16.586Z,9.30
2019-02-04T10:32:45.143Z,9.50
2019-02-04T10:35:16.771Z,8.83
2019-02-04T10:37:45.222Z,9.70
2019-02-04T10:40:16.826Z,9.33
2019-02-04T10:42:45.284Z,8.80
2019-02-04T10:45:15.631Z,9.07
2019-02-04T10:47:44.171Z,9.00
2019-02-04T10:50:14.975Z,9.45
2019-02-04T10:52:44.749Z,9.37
2019-02-04T10:55:13.379Z,10.30
2019-02-04T10:57:41.942Z,9.57
2019-02-04T11:00:15.030Z,9.27
2019-02-04T11:02:43.639Z,9.10
2019-02-04T11:05:14.531Z,8.95
2019-02-04T11:07:43.276Z,8.70
2019-02-04T11:10:15.914Z,8.90
2019-02-04T11:12:44.447Z,9.70
2019-02-04T11:15:15.985Z,9.53
2019-02-04T11:17:44.485Z,8.70
2019-02-04T11:20:18.417Z,8.97
2019-02-04T11:22:47.069Z,8.60
2019-02-04T11:25:15.788Z,8.00
2019-02-04T11:27:44.382Z,8.50
2019-02-04T11:30:19.913Z,9.73
2019-02-04T11:32:48.901Z,8.73
2019-02-04T11:35:17.526Z,9.10
2019-02-04T11:37:46.120Z,9.00
2019-02-04T11:40:18.461Z,8.40
2019-02-04T11:42:46.882Z,8.25
2019-02-04T11:45:15.753Z,8.60
2019-02-04T11:47:44.614Z,8.07
2019-02-04T11:50:14.586Z,7.57
2019-02-04T11:52:42.930Z,7.72
2019-02-04T11:55:14.489Z,7.90
2019-02-04T11:57:43.136Z,8.40
2019-02-04T12:00:16.440Z,7.87
2019-02-04T12:02:45.321Z,8.20
2019-02-04T12:05:16.968Z,7.90
2019-02-04T12:07:45.483Z,6.73
2019-02-04T12:10:17.389Z,6.40
2019-02-04T12:12:45.763Z,7.97
2019-02-04T12:15:18.047Z,7.95
2019-02-04T12:17:46.491Z,8.23
2019-02-04T12:20:16.954Z,7.93
2019-02-04T12:22:46.022Z,7.50
2019-02-04T12:25:18.868Z,7.90
2019-02-04T12:27:47.193Z,8.17
2019-02-04T12:30:19.702Z,7.87
2019-02-04T12:32:48.086Z,7.73
2019-02-04T12:35:16.579Z,7.10
2019-02-04T12:37:44.993Z,7.73
2019-02-04T12:40:16.117Z,6.80
2019-02-04T12:42:44.589Z,6.60
2019-02-04T12:45:17.388Z,7.07
2019-02-04T12:47:45.770Z,7.13
2019-02-04T12:50:14.946Z,7.30
2019-02-04T12:52:43.389Z,6.27
2019-02-04T12:55:15.854Z,6.13
2019-02-04T12:57:44.650Z,6.50
2019-02-04T13:00:17.794Z,6.37
2019-02-04T13:02:46.178Z,6.67
2019-02-04T13:05:17.663Z,6.60
2019-02-04T13:07:46.002Z,6.83
2019-02-04T13:10:15.505Z,6.40
2019-02-04T13:12:44.283Z,6.03
2019-02-04T13:15:16.106Z,5.00
2019-02-04T13:17:44.580Z,4.30
2019-02-04T13:20:15.870Z,4.70
2019-02-04T13:22:44.196Z,4.67
2019-02-04T13:25:16.874Z,4.77
2019-02-04T13:27:45.212Z,4.43
2019-02-04T13:30:16.811Z,4.25
2019-02-04T13:32:45.185Z,4.63
2019-02-04T13:35:14.428Z,4.28
2019-02-04T13:37:43.207Z,4.28
2019-02-04T13:40:15.039Z,4.27
2019-02-04T13:42:43.776Z,4.72
2019-02-04T13:45:15.955Z,5.63
2019-02-04T13:47:44.447Z,3.73
2019-02-04T13:50:15.006Z,3.77
2019-02-04T13:52:44.197Z,4.40
2019-02-04T13:55:16.621Z,3.60
2019-02-04T13:57:45.183Z,3.33
2019-02-04T14:00:16.047Z,3.43
2019-02-04T14:02:44.556Z,3.77
2019-02-04T14:05:13.089Z,4.03
2019-02-04T14:07:41.861Z,3.50
2019-02-04T14:10:15.526Z,3.53
2019-02-04T14:12:45.599Z,3.50
2019-02-04T14:15:16.395Z,3.00
2019-02-04T14:17:44.912Z,3.75
2019-02-04T14:20:15.524Z,3.80
2019-02-04T14:22:43.946Z,3.65
2019-02-04T14:25:12.599Z,3.87
2019-02-04T14:27:41.017Z,3.00
2019-02-04T14:30:15.677Z,3.83
2019-02-04T14:32:44.020Z,2.80
2019-02-04T14:35:12.383Z,3.27
2019-02-04T14:37:40.751Z,3.50
2019-02-04T14:40:18.599Z,3.03
2019-02-04T14:42:41.670Z,3.30
2019-02-04T14:45:13.245Z,3.10
2019-02-04T14:47:42.753Z,3.67
2019-02-04T14:50:16.463Z,3.10
2019-02-04T14:52:49.396Z,3.03
2019-02-04T14:58:35.213Z,3.50
2019-02-04T15:01:10.106Z,3.90
2019-02-04T15:03:42.081Z,3.50
2019-02-04T15:06:15.470Z,3.83
2019-02-04T15:08:49.574Z,3.57
2019-02-04T15:11:21.371Z,4.00
2019-02-04T15:17:02.131Z,3.50
2019-02-04T15:19:37.816Z,3.90
2019-02-04T15:25:20.238Z,4.07
2019-02-04T15:27:54.861Z,3.53
2019-02-04T15:30:26.369Z,3.80
2019-02-04T15:33:00.188Z,3.80
2019-02-04T15:35:32.109Z,3.50
2019-02-04T15:38:02.409Z,3.57
2019-02-04T15:40:35.472Z,4.13
2019-02-04T15:43:08.122Z,3.97
2019-02-04T15:45:40.781Z,4.00
2019-02-04T15:48:09.780Z,3.80
2019-02-04T15:50:42.628Z,3.10
2019-02-04T15:53:11.033Z,3.00
2019-02-04T15:55:40.107Z,3.80
2019-02-04T15:58:08.886Z,3.10
2019-02-04T16:00:37.612Z,3.00
2019-02-04T16:03:06.426Z,3.30
2019-02-04T16:05:34.789Z,3.50
2019-02-04T16:08:03.170Z,3.27
2019-02-04T16:10:31.545Z,2.80
2019-02-04T16:12:59.886Z,3.85
2019-02-04T16:15:28.408Z,2.70
2019-02-04T16:17:57.005Z,3.37
2019-02-04T16:20:25.475Z,11.47
2019-02-04T16:22:58.449Z,3.40
2019-02-04T16:25:24.277Z,3.77
2019-02-04T16:27:52.692Z,3.10
2019-02-04T16:30:21.993Z,3.07
2019-02-04T16:32:52.838Z,2.90
2019-02-04T16:35:20.807Z,2.63
2019-02-04T16:37:50.485Z,4.30
2019-02-04T16:40:21.927Z,3.00
2019-02-04T16:42:50.544Z,2.53
2019-02-04T16:45:21.303Z,2.40
2019-02-04T16:47:50.177Z,3.30
2019-02-04T16:50:20.929Z,3.30
2019-02-04T16:52:49.390Z,2.70
2019-02-04T16:55:18.489Z,2.58
2019-02-04T16:57:46.900Z,2.83
2019-02-04T17:00:17.689Z,2.77
2019-02-04T17:02:47.336Z,2.73
2019-02-04T17:05:16.095Z,3.33
2019-02-04T17:07:44.470Z,3.00
2019-02-04T17:10:16.978Z,5.03
2019-02-04T17:12:48.348Z,3.50
2019-02-04T17:15:18.648Z,3.13
2019-02-04T17:17:49.805Z,3.20
2019-02-04T17:20:24.972Z,2.53
2019-02-04T17:22:53.397Z,3.57
2019-02-04T17:25:21.924Z,2.60
2019-02-04T17:27:50.365Z,2.80
2019-02-04T17:30:22.787Z,2.92
2019-02-04T17:32:51.359Z,3.10
2019-02-04T17:35:19.911Z,3.93
2019-02-04T17:37:48.978Z,3.50
2019-02-04T17:40:20.044Z,3.90
2019-02-04T17:42:48.728Z,3.50
2019-02-04T17:45:17.609Z,3.80
2019-02-04T17:47:47.490Z,3.60
2019-02-04T17:50:17.956Z,3.90
2019-02-04T17:52:46.465Z,3.50
2019-02-04T17:55:18.049Z,3.70
2019-02-04T17:57:46.487Z,3.07
2019-02-04T18:00:23.389Z,4.10
2019-02-04T18:02:51.806Z,3.63
2019-02-04T18:05:20.221Z,3.83
2019-02-04T18:07:48.815Z,4.00
2019-02-04T18:10:18.395Z,3.30
2019-02-04T18:12:47.128Z,3.90
2019-02-04T18:15:18.493Z,3.70
2019-02-04T18:17:46.911Z,3.80
2019-02-04T18:20:15.815Z,4.10
2019-02-04T18:22:44.246Z,4.17
2019-02-04T18:25:17.107Z,3.60
2019-02-04T18:27:45.605Z,3.95
2019-02-04T18:30:18.176Z,3.40
2019-02-04T18:32:46.708Z,3.67
2019-02-04T18:35:16.072Z,4.07
2019-02-04T18:37:44.583Z,3.70
2019-02-04T18:40:17.166Z,4.10
2019-02-04T18:42:46.154Z,4.50
2019-02-04T18:45:16.449Z,4.43
2019-02-04T18:47:45.961Z,3.53
2019-02-04T18:50:15.357Z,4.07
2019-02-04T18:52:44.302Z,4.47
2019-02-04T18:55:15.967Z,4.27
2019-02-04T18:57:44.377Z,4.90
2019-02-04T19:00:15.650Z,3.90
2019-02-04T19:02:44.213Z,4.27
2019-02-04T19:05:13.618Z,3.67
2019-02-04T19:07:42.411Z,3.37
2019-02-04T19:10:14.146Z,4.90
2019-02-04T19:12:42.570Z,3.67
2019-02-04T19:15:15.072Z,3.90
2019-02-04T19:17:43.684Z,4.20
2019-02-04T19:20:17.497Z,3.95
2019-02-04T19:22:46.008Z,4.60
2019-02-04T19:25:17.183Z,4.00
2019-02-04T19:27:46.006Z,4.13
2019-02-04T19:30:18.227Z,3.80
2019-02-04T19:32:46.725Z,4.77
2019-02-04T19:35:15.737Z,7.30
2019-02-04T19:37:44.253Z,4.40
2019-02-04T19:40:16.154Z,5.92
2019-02-04T19:42:44.584Z,4.40
2019-02-04T19:45:15.307Z,4.57
2019-02-04T19:47:43.678Z,12.97
2019-02-04T19:50:18.911Z,5.20
2019-02-04T19:52:47.410Z,4.63
2019-02-04T19:55:16.286Z,4.43
2019-02-04T19:57:44.798Z,4.33
2019-02-04T20:00:15.629Z,4.37
2019-02-04T20:02:44.617Z,5.37
2019-02-04T20:05:15.654Z,5.85
2019-02-04T20:07:44.094Z,4.53
2019-02-04T20:10:13.672Z,4.70
2019-02-04T20:12:42.173Z,4.42
2019-02-04T20:15:13.914Z,5.50
2019-02-04T20:17:42.713Z,5.03
2019-02-04T20:20:12.137Z,4.47
2019-02-04T20:22:40.486Z,3.63
2019-02-04T20:25:15.206Z,3.77
2019-02-04T20:27:44.633Z,3.95
2019-02-04T20:30:17.582Z,4.27
2019-02-04T20:32:46.038Z,3.93
2019-02-04T20:35:14.862Z,3.87
2019-02-04T20:37:43.329Z,4.30
2019-02-04T20:40:16.875Z,3.87
2019-02-04T20:42:45.350Z,5.10
2019-02-04T20:45:15.069Z,4.45
2019-02-04T20:47:44.106Z,4.97
2019-02-04T20:50:15.881Z,4.03
2019-02-04T20:52:44.241Z,5.30
2019-02-04T20:55:13.130Z,5.30
2019-02-04T20:57:41.451Z,4.70
2019-02-04T21:00:13.816Z,4.90
2019-02-04T21:02:42.144Z,4.97
2019-02-04T21:05:11.292Z,4.35
2019-02-04T21:07:39.685Z,4.47
2019-02-04T21:10:10.638Z,5.33
2019-02-04T21:12:38.968Z,5.50
2019-02-04T21:15:10.946Z,4.70
2019-02-04T21:17:40.133Z,5.10
2019-02-04T21:20:13.556Z,5.00
2019-02-04T21:22:41.951Z,4.90
2019-02-04T21:25:11.909Z,5.13
2019-02-04T21:27:40.325Z,5.65
2019-02-04T21:30:13.463Z,4.50
2019-02-04T21:32:41.838Z,5.00
2019-02-04T21:35:10.897Z,5.20
2019-02-04T21:37:39.638Z,4.85
2019-02-04T21:40:13.243Z,5.23
2019-02-04T21:42:41.638Z,4.63
2019-02-04T21:45:13.475Z,5.13
2019-02-04T21:47:41.947Z,4.90
2019-02-04T21:50:14.561Z,4.60
2019-02-04T21:52:43.209Z,6.00
2019-02-04T21:55:12.562Z,4.80
2019-02-04T21:57:41.345Z,6.73
2019-02-04T22:00:16.096Z,5.87
2019-02-04T22:02:44.947Z,4.80
2019-02-04T22:05:15.132Z,4.40
2019-02-04T22:07:44.006Z,4.90
2019-02-04T22:10:18.811Z,4.83
2019-02-04T22:12:47.670Z,4.80
2019-02-04T22:15:16.169Z,5.00
2019-02-04T22:17:44.740Z,7.10
2019-02-04T22:20:15.241Z,5.80
2019-02-04T22:22:43.695Z,4.67
2019-02-04T22:25:19.929Z,5.03
2019-02-04T22:27:46.382Z,5.22
2019-02-04T22:30:18.799Z,5.55
2019-02-04T22:32:47.427Z,6.27
2019-02-04T22:35:17.240Z,6.20
2019-02-04T22:37:45.674Z,6.70
2019-02-04T22:40:18.048Z,7.33
2019-02-04T22:42:46.390Z,6.60
2019-02-04T22:45:16.368Z,4.87
2019-02-04T22:47:44.786Z,5.20
2019-02-04T22:50:14.957Z,5.27
2019-02-04T22:52:43.436Z,5.10
2019-02-04T22:55:13.926Z,7.27
2019-02-04T22:57:42.286Z,6.37
2019-02-04T23:00:14.020Z,6.50
2019-02-04T23:02:42.454Z,5.97
2019-02-04T23:05:11.310Z,6.00
2019-02-04T23:07:39.617Z,5.50
2019-02-04T23:10:08.693Z,6.37
2019-02-04T23:12:37.066Z,7.20
2019-02-04T23:15:07.937Z,7.77
2019-02-04T23:17:36.369Z,6.40
2019-02-04T23:20:06.894Z,6.20
2019-02-04T23:22:35.387Z,6.30
2019-02-04T23:25:05.987Z,6.28
2019-02-04T23:27:34.629Z,6.10
2019-02-04T23:30:07.266Z,6.33
2019-02-04T23:32:35.650Z,5.50
2019-02-04T23:35:04.368Z,6.30
2019-02-04T23:37:32.825Z,6.23
2019-02-04T23:40:01.247Z,5.80
2019-02-04T23:42:29.622Z,5.90
2019-02-04T23:44:57.964Z,5.93
2019-02-04T23:47:26.279Z,6.13
2019-02-04T23:49:54.669Z,5.90
2019-02-04T23:52:22.992Z,5.73
2019-02-04T23:54:51.690Z,5.45
2019-02-04T23:57:20.043Z,5.67
2019-02-04T23:59:48.408Z,6.43
